CCGS Louis S. St-Laurent — CGBN — position and weather

sailwx.info

Track history (hours):
 
Tides and Currents Weather Stations Pressure Air Temp Water Temp Dewpoint Dewpoint Depression Visibility Wind Speed Wind Dir Waves Ship Positions

Oceanographic research ship CCGS Louis S. St-Laurent (Canada)

Detailed information on ship capabilities available from ARCUS's ALIAS (Arctic Logistics Information and Support) project.

Last reported at 2017-Nov-04 06:00 UTC. Time now 2017-Nov-20 02:13 UTC.
Position N 47°36' W 052°42'.
Warning: this ship's position is 15 days out of date.

Length 119.63 m; beam 24.38 m; draft 9.9 m.

MMSI: 316165000.

Wind from 200 at 17 knots

Barometer 1010.0 mb
Air temperature 11.5 ° C
Dewpoint 10.1 ° C

Date/timePositionNaut miles runAvg speedWind from/ knotsBaromVisibWave heightAir tempDewpointWater temp
2017-Nov-04 06:00N 47°36' W 052°42'0 0.0 200 / 171010.0 11.510.1
2017-Nov-04 05:00N 47°36' W 052°42'0 0.0 210 / 91012.3 11.510.2
2017-Nov-04 04:00N 47°36' W 052°42'0 0.0 200 / 111013.8 11.710.4
2017-Nov-04 03:00N 47°36' W 052°42'0 0.0 200 / 131015.6 11.310.1
2017-Nov-04 02:00N 47°36' W 052°42'0 0.0 210 / 131016.7 10.5 9.5
2017-Nov-04 01:00N 47°36' W 052°42'0 0.0 200 / 141018.1 10.0 9.0
2017-Nov-04 00:00N 47°36' W 052°42'0 0.0 200 / 111019.1 9.6 8.5
2017-Nov-03 23:00N 47°36' W 052°42'0 0.0 210 / 111020.2 9.1 7.8
2017-Nov-03 22:00N 47°36' W 052°42'0 0.0 210 / 91021.3 8.2 6.6
2017-Nov-03 21:00N 47°36' W 052°42'0 0.0 200 / 51022.3 7.7 5.3
2017-Nov-03 20:00N 47°36' W 052°42'0 0.0 210 / 81022.8 8.4 5.6
2017-Nov-03 19:00N 47°36' W 052°42'0 0.0 200 / 71024.0 10.3 5.4
2017-Nov-03 18:00N 47°36' W 052°42'0 0.0 190 / 51025.0 10.9 5.6
2017-Nov-03 17:00N 47°36' W 052°42'0 0.0 180 / 81025.9 10.3 5.3
2017-Nov-03 16:00N 47°36' W 052°42'0 0.0 190 / 91027.3 10.0 5.4
2017-Nov-03 14:00N 47°36' W 052°42'0 0.0 200 / 51030.1 8.1 5.2
2017-Nov-03 13:00N 47°36' W 052°42'0 0.0 230 / 51030.6 7.8 4.8
2017-Nov-03 12:00N 47°36' W 052°42'0 0.0 220 / 21031.6 5.7 3.9
2017-Nov-03 11:00N 47°36' W 052°42'0 0.0 210 / 31032.2 2.9 1.8
2017-Nov-03 10:00N 47°36' W 052°42'0 0.0 210 / 31032.5 1.9 1.0
2017-Nov-03 09:00N 47°36' W 052°42'0 0.0 220 / 31033.0 1.5 0.7
2017-Nov-03 08:00N 47°36' W 052°42'0 0.0 220 / 21033.6 1.3 0.6
2017-Nov-03 07:00N 47°36' W 052°42'0 0.0 210 / 41034.1 0.9 0.1
2017-Nov-03 06:00N 47°36' W 052°42'0 0.0 220 / 31034.8 0.8-0.0
2017-Nov-03 05:00N 47°36' W 052°42'0 0.0 210 / 31035.7 1.2 0.4
2017-Nov-03 04:00N 47°36' W 052°42'0 0.0 220 / 41035.9 1.8 0.8
2017-Nov-03 03:00N 47°36' W 052°42'0 0.0 220 / 31036.1 2.1 1.1
2017-Nov-03 02:00N 47°36' W 052°42'0 0.0 220 / 31036.9 2.4 1.3
2017-Nov-03 01:00N 47°36' W 052°42'0 0.0 210 / 41036.9 3.4 2.0
2017-Nov-03 00:00N 47°36' W 052°42'0 0.0 200 / 31036.5 4.3 2.6
2017-Nov-02 23:00N 47°36' W 052°42'0 0.0 130 / 31036.4 5.2 2.9
2017-Nov-02 22:00N 47°36' W 052°42'0 0.0 1036.5 5.9 3.2
2017-Nov-02 21:00N 47°36' W 052°42'0 0.0 1036.6 6.5 3.1
2017-Nov-02 20:00N 47°36' W 052°42'0 0.0 060 / 11036.2 7.5 3.0
2017-Nov-02 19:00N 47°36' W 052°42'0 0.0 060 / 11035.9 9.1 3.3
2017-Nov-02 18:00N 47°36' W 052°42'0 0.0 070 / 11035.4 9.9 3.7
2017-Nov-02 17:00N 47°36' W 052°42'0 0.0 020 / 11035.6 10.0 2.7
2017-Nov-02 16:00N 47°36' W 052°42'0 0.0 340 / 21036.0 9.7 2.4
2017-Nov-02 15:00N 47°36' W 052°42'0 0.0 260 / 41036.4 9.5 2.9
2017-Nov-02 14:00N 47°36' W 052°42'0 0.0 310 / 11036.5 9.0 3.5
2017-Nov-02 13:00N 47°36' W 052°42'0 0.0 140 / 11036.3 7.6 4.0
2017-Nov-02 12:00N 47°36' W 052°42'0 0.0 200 / 41036.1 5.4 3.4
2017-Nov-02 11:00N 47°36' W 052°42'0 0.0 210 / 31035.4 3.8 2.7
2017-Nov-02 10:00N 47°36' W 052°42'0 0.0 210 / 41034.8 4.0 2.9
2017-Nov-02 09:00N 47°36' W 052°42'0 0.0 220 / 31034.3 4.2 3.1
2017-Nov-02 08:00N 47°36' W 052°42'0 0.0 190 / 21034.2 4.5 3.3
2017-Nov-02 07:00N 47°36' W 052°42'0 0.0 190 / 31033.8 5.8 3.8
2017-Nov-02 06:00N 47°36' W 052°42'0 0.0 210 / 41033.4 6.2 4.0
2017-Nov-02 05:00N 47°36' W 052°42'0 0.0 210 / 51033.2 6.5 4.4
2017-Nov-02 04:00N 47°36' W 052°42'0 0.0 190 / 51032.7 7.2 4.9
2017-Nov-02 03:00N 47°36' W 052°42'0 0.0 210 / 61032.2 8.0 5.1
2017-Nov-02 02:00N 47°36' W 052°42'0 0.0 210 / 51031.9 8.1 5.7
2017-Nov-02 01:00N 47°36' W 052°42'0 0.0 190 / 81031.4 8.0 5.7
2017-Nov-02 00:00N 47°36' W 052°42'0 0.0 210 / 81030.6 8.7 4.9
2017-Nov-01 23:00N 47°36' W 052°42'0 0.0 210 / 91029.7 9.2 4.5
2017-Nov-01 22:00N 47°36' W 052°42'0 0.0 220 / 71029.2 9.6 4.2
2017-Nov-01 21:00N 47°36' W 052°42'0 0.0 210 / 61028.3 10.4 2.8
2017-Nov-01 20:00N 47°36' W 052°42'0 0.0 230 / 101027.8 12.9 1.5
2017-Nov-01 19:00N 47°36' W 052°42'0 0.0 230 / 101026.9 14.0 1.6
2017-Nov-01 18:00N 47°36' W 052°42'0 0.0 230 / 131026.3 14.5 0.5
2017-Nov-01 17:00N 47°36' W 052°42'0 0.0 220 / 121025.7 14.6 0.5
2017-Nov-01 16:00N 47°36' W 052°42'0 0.0 230 / 111025.3 14.3 2.6
2017-Nov-01 15:00N 47°36' W 052°42'0 0.0 230 / 111025.2 13.6 4.8
2017-Nov-01 14:00N 47°36' W 052°42'0 0.0 260 / 101025.0 13.0 6.8
2017-Nov-01 13:00N 47°36' W 052°42'0 0.0 240 / 91024.1 12.5 7.7
2017-Nov-01 12:00N 47°36' W 052°42'0 0.0 230 / 101023.0 11.7 8.6
2017-Nov-01 11:00N 47°36' W 052°42'0 0.0 210 / 91021.5 10.5 8.5
2017-Nov-01 10:00N 47°36' W 052°42'0 0.0 210 / 91019.7 10.8 8.7
2017-Nov-01 09:00N 47°36' W 052°42'0 0.0 220 / 121019.0 12.0 9.3
2017-Nov-01 08:00N 47°36' W 052°42'0 0.0 210 / 91018.4 11.9 9.9
2017-Nov-01 07:00N 47°36' W 052°42'0 0.0 210 / 81017.9 11.6 9.9
2017-Nov-01 06:00N 47°36' W 052°42'0 0.0 210 / 101017.5 11.7 9.8
2017-Nov-01 05:00N 47°36' W 052°42'0 0.0 210 / 91016.9 10.9 9.1
2017-Nov-01 03:00N 47°36' W 052°42'0 0.0 220 / 91016.5 10.3 8.7
2017-Nov-01 02:00N 47°36' W 052°42'3 5.3 210 / 91016.4 10.3 8.7
2017-Nov-01 01:30N 47°33' W 052°42'3 5.1
2017-Nov-01 01:00N 47°36' W 052°42'313.6 230 / 71016.7 10.6 8.8
2017-Nov-01 00:48N 47°33' W 052°42'0 0.0
2017-Nov-01 00:15N 47°33' W 052°42'0 0.0
2017-Nov-01 00:00N 47°33' W 052°42'3291.7
2017-Nov-01 00:00N 47°36' W 052°42'3 5.3 220 / 31016.2 10.9 9.0
2017-Oct-31 23:30N 47°33' W 052°42'3 5.1
2017-Oct-31 23:00N 47°36' W 052°42'310.8 230 / 21015.8 11.5 9.2
2017-Oct-31 22:45N 47°33' W 052°42'0 0.0
2017-Oct-31 22:30N 47°33' W 052°42'3 5.1
2017-Oct-31 22:00N 47°36' W 052°42'363.9 210 / 91015.3 12.3 9.6
2017-Oct-31 21:57N 47°33' W 052°42'0 0.0
2017-Oct-31 21:24N 47°33' W 052°42'0 0.0
2017-Oct-31 21:00N 47°33' W 052°42'3282.9
2017-Oct-31 21:00N 47°36' W 052°42'0 0.0 210 / 81014.9 13.610.5
2017-Oct-31 20:00N 47°36' W 052°42'0 0.0 210 / 91014.5 14.110.8
2017-Oct-31 19:00N 47°36' W 052°42'0 0.0 230 / 121014.0 15.012.0
2017-Oct-31 18:00N 47°36' W 052°42'3 4.8 220 / 141013.6 16.113.4
2017-Oct-31 17:27N 47°33' W 052°42'3 5.6
2017-Oct-31 17:00N 47°36' W 052°42'3 6.6 210 / 131013.1 16.214.6
2017-Oct-31 16:36N 47°33' W 052°42'0 0.0
2017-Oct-31 16:24N 47°33' W 052°42'3 6.3
2017-Oct-31 16:00N 47°36' W 052°42'318.4 200 / 131013.5 15.414.1
2017-Oct-31 15:51N 47°33' W 052°42'0 0.0
2017-Oct-31 15:30N 47°33' W 052°42'3 5.1
2017-Oct-31 15:00N 47°36' W 052°42'363.4 200 / 121014.6 15.013.8
2017-Oct-31 14:57N 47°33' W 052°42'0 0.0
2017-Oct-31 14:30N 47°33' W 052°42'0 0.0
2017-Oct-31 14:00N 47°33' W 052°42'3274.5
2017-Oct-31 14:00N 47°36' W 052°42'3 4.4 210 / 141015.3 13.412.2
2017-Oct-31 13:24N 47°33' W 052°42'3 6.3
2017-Oct-31 13:00N 47°36' W 052°42'0 0.0 210 / 171015.5 13.211.9
2017-Oct-31 12:00N 47°36' W 052°42'0 0.0 210 / 191015.7 12.011.0
2017-Oct-31 11:00N 47°36' W 052°42'3 2.9 200 / 161016.2 11.610.6
2017-Oct-31 10:06N 47°33' W 052°42'0 0.1
2017-Oct-31 10:00N 47°33' W 052°42'3282.9
2017-Oct-31 10:00N 47°36' W 052°42'3 4.0 230 / 51017.5 10.610.1
2017-Oct-31 09:21N 47°33' W 052°42'3 7.2
2017-Oct-31 09:00N 47°36' W 052°42'328.4 220 / 91017.7 9.7 9.4
2017-Oct-31 08:54N 47°33' W 052°42'0 0.0
2017-Oct-31 08:30N 47°33' W 052°42'0 0.0
2017-Oct-31 08:00N 47°33' W 052°42'3282.9
2017-Oct-31 08:00N 47°36' W 052°42'3 5.3 250 / 81018.7 9.4 9.0
2017-Oct-31 07:30N 47°33' W 052°42'3 5.1
2017-Oct-31 07:00N 47°36' W 052°42'313.6 240 / 111019.0 9.4 8.7
2017-Oct-31 06:48N 47°33' W 052°42'0 0.0
2017-Oct-31 06:30N 47°33' W 052°42'0 0.0
2017-Oct-31 06:00N 47°33' W 052°42'3273.9
2017-Oct-31 06:00N 47°36' W 052°42'3 5.3 230 / 111019.6 9.0 8.2
2017-Oct-31 05:30N 47°33' W 052°42'3 5.1
2017-Oct-31 05:00N 47°36' W 052°42'310.7 230 / 81020.5 9.0 7.9
2017-Oct-31 04:45N 47°33' W 052°42'0 0.0
2017-Oct-31 04:06N 47°33' W 052°42'323.8
2017-Oct-31 04:00N 47°36' W 052°42'328.5 210 / 81021.4 8.7 7.4
2017-Oct-31 03:54N 47°33' W 052°42'0 0.0
2017-Oct-31 03:30N 47°33' W 052°42'3 5.1
2017-Oct-31 03:00N 47°36' W 052°42'318.4 210 / 51021.8 8.6 6.8
2017-Oct-31 02:51N 47°33' W 052°42'0 0.0
2017-Oct-31 02:18N 47°33' W 052°42'0 0.0
2017-Oct-31 02:00N 47°33' W 052°42'3282.9
2017-Oct-31 02:00N 47°36' W 052°42'3 4.4 220 / 71022.3 8.5 6.6
2017-Oct-31 01:24N 47°33' W 052°42'3 6.3
2017-Oct-31 01:00N 47°36' W 052°42'3 4.4 200 / 81022.7 8.5 7.3
2017-Oct-31 00:24N 47°33' W 052°42'3 6.3
2017-Oct-31 00:00N 47°36' W 052°42'363.9 210 / 41022.8 8.7 7.0
2017-Oct-30 23:57N 47°33' W 052°42'0 0.0
2017-Oct-30 23:24N 47°33' W 052°42'0 0.0
2017-Oct-30 23:00N 47°33' W 052°42'3274.5
2017-Oct-30 23:00N 47°36' W 052°42'3 5.3 200 / 81023.4 8.7 7.1
2017-Oct-30 22:30N 47°33' W 052°42'0 0.0
2017-Oct-30 22:00N 47°33' W 052°42'3282.9
2017-Oct-30 22:00N 47°36' W 052°42'3 4.4 200 / 51023.7 9.0 6.6
2017-Oct-30 21:24N 47°33' W 052°42'3 6.3
2017-Oct-30 21:00N 47°36' W 052°42'328.6 200 / 91023.9 9.3 6.6
2017-Oct-30 20:54N 47°33' W 052°42'0 0.0
2017-Oct-30 20:30N 47°33' W 052°42'3 5.0
2017-Oct-30 20:00N 47°36' W 052°42'0 0.0 190 / 41023.7 9.9 7.4
2017-Oct-30 19:00N 47°36' W 052°42'0 0.0 200 / 51023.9 10.7 7.5
2017-Oct-30 18:00N 47°36' W 052°42'0 0.0 200 / 61023.9 11.3 7.3
2017-Oct-30 17:00N 47°36' W 052°42'0 0.0 230 / 51024.2 12.1 6.8
2017-Oct-30 16:00N 47°36' W 052°42'0 0.0 010 / 21025.0 10.9 6.8
2017-Oct-30 15:00N 47°36' W 052°42'0 0.0 030 / 21024.9 10.0 6.3
2017-Oct-30 14:00N 47°36' W 052°42'0 0.0 230 / 31025.5 9.6 5.7
2017-Oct-30 13:00N 47°36' W 052°42'0 0.0 230 / 61025.6 8.8 5.8
2017-Oct-30 12:00N 47°36' W 052°42'0 0.0 230 / 51025.2 8.4 5.7
2017-Oct-30 11:00N 47°36' W 052°42'0 0.0 220 / 61024.4 8.0 5.5
2017-Oct-30 10:00N 47°36' W 052°42'322.4 220 / 61023.8 8.3 5.5
2017-Oct-30 09:53N 47°33' W 052°42'0 0.0
2017-Oct-30 09:29N 47°33' W 052°42'3 5.2
2017-Oct-30 09:00N 47°36' W 052°42'340.0 220 / 51023.6 8.5 5.6
2017-Oct-30 08:56N 47°33' W 052°42'0 0.0
2017-Oct-30 08:29N 47°33' W 052°42'3 5.2
2017-Oct-30 08:00N 47°36' W 052°42'315.5 230 / 41023.2 9.3 5.5
2017-Oct-30 07:50N 47°33' W 052°42'0 0.0
2017-Oct-30 07:02N 47°33' W 052°42'369.1
2017-Oct-30 07:00N 47°36' W 052°42'322.3 230 / 31023.2 10.5 5.8
2017-Oct-30 06:53N 47°33' W 052°42'0 0.0
2017-Oct-30 06:02N 47°33' W 052°42'369.6
2017-Oct-30 06:00N 47°36' W 052°42'322.4 230 / 31023.0 11.0 6.0
2017-Oct-30 05:53N 47°33' W 052°42'0 0.0
2017-Oct-30 05:17N 47°33' W 052°42'3 8.8
2017-Oct-30 05:00N 47°36' W 052°42'340.0 230 / 51023.2 10.5 5.9
2017-Oct-30 04:56N 47°33' W 052°42'0 0.0
2017-Oct-30 04:29N 47°33' W 052°42'3 5.2
2017-Oct-30 04:00N 47°36' W 052°42'3189.9 230 / 41023.0 11.3 6.2
2017-Oct-30 03:59N 47°33' W 052°42'0 0.0
2017-Oct-30 03:29N 47°33' W 052°42'3 5.2
2017-Oct-30 03:00N 47°36' W 052°42'339.8 230 / 31023.3 11.3 6.3
2017-Oct-30 02:56N 47°33' W 052°42'0 0.0
2017-Oct-30 02:20N 47°33' W 052°42'3 7.5
2017-Oct-30 02:00N 47°36' W 052°42'3 9.6 230 / 41023.0 10.8 6.6
2017-Oct-30 01:44N 47°33' W 052°42'0 0.0
2017-Oct-30 01:29N 47°33' W 052°42'3 5.2
2017-Oct-30 01:00N 47°36' W 052°42'322.3 010 / 21022.5 8.8 7.1
2017-Oct-30 00:53N 47°33' W 052°42'0 0.0
2017-Oct-30 00:23N 47°33' W 052°42'3 6.5
2017-Oct-30 00:00N 47°36' W 052°42'3189.9 020 / 21021.7 9.1 6.9
2017-Oct-29 23:59N 47°33' W 052°42'0 0.0
2017-Oct-29 23:29N 47°33' W 052°42'3 5.2
2017-Oct-29 23:00N 47°36' W 052°42'3186.0 020 / 21021.5 9.0 6.8
2017-Oct-29 22:59N 47°33' W 052°42'0 0.0
2017-Oct-29 22:26N 47°33' W 052°42'3 5.8
2017-Oct-29 22:00N 47°36' W 052°42'3186.0 320 / 11021.4 10.2 6.7
2017-Oct-29 21:59N 47°33' W 052°42'0 0.0
2017-Oct-29 21:29N 47°33' W 052°42'3 5.2
2017-Oct-29 21:00N 47°36' W 052°42'3189.9 1020.9 10.5 6.2
2017-Oct-29 20:59N 47°33' W 052°42'3 2.6
2017-Oct-29 20:00N 47°36' W 052°42'0 0.0 280 / 11020.2 10.8 6.3
2017-Oct-29 19:00N 47°36' W 052°42'0 0.0 300 / 21019.8 11.1 6.3
2017-Oct-29 18:00N 47°36' W 052°42'0 0.0 300 / 11019.5 11.4 6.0
2017-Oct-29 16:00N 47°36' W 052°42'0 0.0 030 / 61018.8 9.7 6.1
2017-Oct-29 15:00N 47°36' W 052°42'0 0.0 020 / 91019.0 9.9 6.1
2017-Oct-29 14:00N 47°36' W 052°42'0 0.0 010 / 81019.0 9.1 6.2
2017-Oct-29 13:00N 47°36' W 052°42'0 0.0 340 / 31018.9 8.9 6.3
2017-Oct-29 12:00N 47°36' W 052°42'0 0.0 360 / 91018.2 8.2 6.5
2017-Oct-29 11:00N 47°36' W 052°42'0 0.0 020 / 71017.6 8.3 7.1
2017-Oct-29 10:00N 47°36' W 052°42'322.3 030 / 51016.8 9.0 6.8
2017-Oct-29 09:53N 47°33' W 052°42'0 0.0
2017-Oct-29 09:17N 47°33' W 052°42'3 8.8
2017-Oct-29 09:00N 47°36' W 052°42'3 3.3 340 / 21016.3 9.5 6.7
2017-Oct-29 08:14N 47°33' W 052°42'310.7
2017-Oct-29 08:00N 47°36' W 052°42'311.9 310 / 21015.9 9.7 6.5
2017-Oct-29 07:47N 47°33' W 052°42'0 0.0
2017-Oct-29 07:14N 47°33' W 052°42'310.7
2017-Oct-29 07:00N 47°36' W 052°42'315.5 310 / 21015.5 9.4 6.4
2017-Oct-29 06:50N 47°33' W 052°42'0 0.0
2017-Oct-29 06:26N 47°33' W 052°42'3 5.8
2017-Oct-29 06:00N 47°36' W 052°42'322.3 240 / 11014.6 9.3 5.7
2017-Oct-29 05:53N 47°33' W 052°42'0 0.0
2017-Oct-29 05:17N 47°33' W 052°42'3 8.8
2017-Oct-29 05:00N 47°36' W 052°42'0 0.0 010 / 61014.4 8.6 5.7
2017-Oct-29 04:00N 47°36' W 052°42'311.9 020 / 61014.4 8.6 6.0
2017-Oct-29 03:47N 47°33' W 052°42'3 3.2
2017-Oct-29 03:00N 47°36' W 052°42'0 0.0 010 / 61014.3 8.5 5.9
2017-Oct-29 02:00N 47°36' W 052°42'0 0.0 350 / 41014.1 8.3 6.1
2017-Oct-29 01:00N 47°36' W 052°42'0 0.0 010 / 81014.0 8.2 6.8
2017-Oct-29 00:00N 47°36' W 052°42'0 0.0 010 / 61013.6 8.0 6.3
2017-Oct-28 23:00N 47°36' W 052°42'0 0.0 010 / 101013.4 7.9 6.2
2017-Oct-28 22:00N 47°36' W 052°42'0 0.0 010 / 71012.9 7.9 5.9
2017-Oct-28 21:00N 47°36' W 052°42'0 0.0 010 / 51012.3 8.1 5.6
2017-Oct-28 20:00N 47°36' W 052°42'0 0.0 340 / 31012.1 8.9 5.3
2017-Oct-28 19:00N 47°36' W 052°42'0 0.0 010 / 81012.0 7.7 5.1
2017-Oct-28 18:00N 47°36' W 052°42'0 0.0 020 / 91011.8 8.5 5.0
2017-Oct-28 17:00N 47°36' W 052°42'0 0.0 350 / 11011.9 9.9 5.1
2017-Oct-28 16:00N 47°36' W 052°42'0 0.0 030 / 71012.1 8.7 5.0
2017-Oct-28 15:00N 47°36' W 052°42'0 0.0 1012.5 9.4 5.1
2017-Oct-28 14:00N 47°36' W 052°42'0 0.0 350 / 31013.4 7.8 5.2
2017-Oct-28 13:00N 47°36' W 052°42'0 0.0 300 / 11013.4 8.5 5.2
2017-Oct-28 12:00N 47°36' W 052°42'3 2.6 360 / 11013.5 6.6 3.9
2017-Oct-28 11:02N 47°33' W 052°42'369.0
2017-Oct-28 11:00N 47°36' W 052°42'0 0.0 1013.3 6.5 3.5
2017-Oct-28 10:00N 47°36' W 052°42'3193.9 030 / 41012.8 5.4 3.2
2017-Oct-28 09:59N 47°33' W 052°42'0 0.0
2017-Oct-28 09:29N 47°33' W 052°42'3 5.2
2017-Oct-28 09:00N 47°36' W 052°42'3193.9 330 / 21013.5 6.3 3.1
2017-Oct-28 08:59N 47°33' W 052°42'0 0.0
2017-Oct-28 08:26N 47°33' W 052°42'3 5.8
2017-Oct-28 08:00N 47°36' W 052°42'340.0 1014.1 6.6 3.2
2017-Oct-28 07:56N 47°33' W 052°42'0 0.0
2017-Oct-28 07:23N 47°33' W 052°42'3 6.5
2017-Oct-28 07:00N 47°36' W 052°42'3186.0 090 / 21013.6 5.8 3.3
2017-Oct-28 06:59N 47°33' W 052°42'0 0.0
2017-Oct-28 06:23N 47°33' W 052°42'3 6.5
2017-Oct-28 06:00N 47°36' W 052°42'3189.9 190 / 21014.8 6.6 3.7
2017-Oct-28 05:59N 47°33' W 052°42'0 0.0
2017-Oct-28 05:26N 47°33' W 052°42'3 5.8
2017-Oct-28 05:00N 47°36' W 052°42'3193.9 140 / 11015.8 6.2 3.6
2017-Oct-28 04:59N 47°33' W 052°42'0 0.0
2017-Oct-28 04:26N 47°33' W 052°42'3 5.8
2017-Oct-28 04:00N 47°36' W 052°42'322.4 050 / 31016.0 6.1 3.5
2017-Oct-28 03:53N 47°33' W 052°42'0 0.0
2017-Oct-28 03:29N 47°33' W 052°42'3 5.2
2017-Oct-28 03:00N 47°36' W 052°42'340.0 040 / 51016.5 6.3 3.8
2017-Oct-28 02:56N 47°33' W 052°42'0 0.0
2017-Oct-28 02:23N 47°33' W 052°42'3 6.5
2017-Oct-28 02:00N 47°36' W 052°42'3186.0 120 / 21017.3 6.6 4.0
2017-Oct-28 01:59N 47°33' W 052°42'0 0.0
2017-Oct-28 01:29N 47°33' W 052°42'3 5.2
2017-Oct-28 01:00N 47°36' W 052°42'3 7.0 200 / 21018.0 7.2 4.4
2017-Oct-28 00:38N 47°33' W 052°42'0 0.0
2017-Oct-28 00:29N 47°33' W 052°42'3 5.2
2017-Oct-28 00:00N 47°36' W 052°42'3193.9 090 / 31018.1 7.1 4.1
2017-Oct-27 23:59N 47°33' W 052°42'0 0.0
2017-Oct-27 23:23N 47°33' W 052°42'3 6.5
2017-Oct-27 23:00N 47°36' W 052°42'315.5 1018.5 7.3 4.3
2017-Oct-27 22:50N 47°33' W 052°42'0 0.0
2017-Oct-27 22:26N 47°33' W 052°42'3 5.8
2017-Oct-27 22:00N 47°36' W 052°42'322.3 180 / 11019.1 8.1 4.9
2017-Oct-27 21:53N 47°33' W 052°42'0 0.0
2017-Oct-27 21:26N 47°33' W 052°42'3 5.8
2017-Oct-27 21:00N 47°36' W 052°42'322.3 120 / 21019.2 7.7 5.3
2017-Oct-27 20:53N 47°33' W 052°42'3 2.9
2017-Oct-27 20:00N 47°36' W 052°42'0 0.0 030 / 11019.6 7.8 5.5
2017-Oct-27 19:00N 47°36' W 052°42'0 0.0 120 / 31019.9 8.7 5.5
2017-Oct-27 18:00N 47°36' W 052°42'0 0.0 060 / 21020.4 9.5 6.3
2017-Oct-27 17:00N 47°36' W 052°42'0 0.0 090 / 51020.7 8.4 6.6
2017-Oct-27 16:00N 47°36' W 052°42'0 0.0 090 / 51021.3 9.5 7.0
2017-Oct-27 15:00N 47°36' W 052°42'0 0.0 090 / 71022.0 8.7 6.5
2017-Oct-27 14:00N 47°36' W 052°42'0 0.0 090 / 71023.2 8.7 6.5
2017-Oct-27 13:00N 47°36' W 052°42'0 0.0 090 / 71023.2 9.0 6.5
2017-Oct-27 12:00N 47°36' W 052°42'2 3.2 200 / 11023.3 9.4 7.2
2017-Oct-27 11:25N 47°34' W 052°42'2 4.4
2017-Oct-27 11:00N 47°36' W 052°42'0 0.0 350 / 21023.4 9.1 7.1
2017-Oct-27 10:00N 47°36' W 052°42'2 6.6 080 / 61023.4 8.4 7.2
2017-Oct-27 09:43N 47°34' W 052°42'0 0.0
2017-Oct-27 09:25N 47°34' W 052°42'2 4.4
2017-Oct-27 09:00N 47°36' W 052°42'223.3 090 / 51023.2 8.4 7.8
2017-Oct-27 08:55N 47°34' W 052°42'0 0.0
2017-Oct-27 08:25N 47°34' W 052°42'2 4.4
2017-Oct-27 08:00N 47°36' W 052°42'223.3 350 / 11022.8 7.7 7.1
2017-Oct-27 07:55N 47°34' W 052°42'0 0.0
2017-Oct-27 07:25N 47°34' W 052°42'2 4.4
2017-Oct-27 07:00N 47°36' W 052°42'223.4 310 / 21023.1 7.8 7.2
2017-Oct-27 06:55N 47°34' W 052°42'0 0.0
2017-Oct-27 06:25N 47°34' W 052°42'0 0.0
2017-Oct-27 05:40N 47°34' W 052°42'0 0.0
2017-Oct-27 05:25N 47°34' W 052°42'2 4.4
2017-Oct-27 05:00N 47°36' W 052°42'263.6 230 / 11024.0 7.0 6.3
2017-Oct-27 04:58N 47°34' W 052°42'0 0.0
2017-Oct-27 04:13N 47°34' W 052°42'2 8.3
2017-Oct-27 04:00N 47°36' W 052°42'210.3 210 / 11024.9 7.5 6.7
2017-Oct-27 03:49N 47°34' W 052°42'0 0.0
2017-Oct-27 03:25N 47°34' W 052°42'2 4.4
2017-Oct-27 03:00N 47°36' W 052°42'223.3 1025.5 7.6 6.8
2017-Oct-27 02:55N 47°34' W 052°42'0 0.0
2017-Oct-27 02:28N 47°34' W 052°42'2 3.9
2017-Oct-27 02:00N 47°36' W 052°42'2 8.0 270 / 11026.2 8.5 7.5
2017-Oct-27 01:46N 47°34' W 052°42'0 0.0
2017-Oct-27 01:22N 47°34' W 052°42'2 4.9
2017-Oct-27 01:00N 47°36' W 052°42'214.3 1026.0 9.3 8.1
2017-Oct-27 00:52N 47°34' W 052°42'0 0.0
2017-Oct-27 00:25N 47°34' W 052°42'2 4.4
2017-Oct-27 00:00N 47°36' W 052°42'264.9 290 / 11026.0 9.6 8.4
2017-Oct-26 23:58N 47°34' W 052°42'0 0.0
2017-Oct-26 23:25N 47°34' W 052°42'2 4.4
2017-Oct-26 23:00N 47°36' W 052°42'214.3 210 / 21026.1 10.2 8.7
2017-Oct-26 22:52N 47°34' W 052°42'0 0.0
2017-Oct-26 22:28N 47°34' W 052°42'2 3.9
2017-Oct-26 22:00N 47°36' W 052°42'2 8.0 310 / 11026.4 10.6 8.8
2017-Oct-26 21:46N 47°34' W 052°42'0 0.0
2017-Oct-26 21:19N 47°34' W 052°42'2 5.7
2017-Oct-26 21:00N 47°36' W 052°42'223.4 080 / 21026.2 10.8 9.0
2017-Oct-26 20:55N 47°34' W 052°42'2 2.0
2017-Oct-26 20:00N 47°36' W 052°42'0 0.0 030 / 11026.2 12.5 9.6
2017-Oct-26 19:00N 47°36' W 052°42'0 0.0 090 / 51026.2 11.3 9.2
2017-Oct-26 18:00N 47°36' W 052°42'0 0.0 090 / 81026.2 11.0 9.2
2017-Oct-26 17:00N 47°36' W 052°42'0 0.0 090 / 91026.4 11.0 9.4
2017-Oct-26 16:00N 47°36' W 052°42'0 0.0 080 / 91026.6 11.3 9.6
2017-Oct-26 15:00N 47°36' W 052°42'0 0.0 090 / 101027.1 12.610.5
2017-Oct-26 14:00N 47°36' W 052°42'0 0.0 090 / 81027.6 11.4 8.8
2017-Oct-26 13:00N 47°36' W 052°42'0 0.0 190 / 21027.5 13.511.0
2017-Oct-26 12:00N 47°36' W 052°42'0 0.0 230 / 11027.9 10.8 8.6
2017-Oct-26 11:00N 47°36' W 052°42'0 0.0 1027.7 9.1 7.1
2017-Oct-26 10:00N 47°36' W 052°42'220.9 050 / 11027.5 7.9 6.6
2017-Oct-26 09:54N 47°34' W 052°42'0 0.0
2017-Oct-26 09:29N 47°34' W 052°42'2 3.7
2017-Oct-26 09:00N 47°36' W 052°42'320.3 260 / 91027.2 8.6 7.3
2017-Oct-26 08:51N 47°34' W 052°39'1 2.7
2017-Oct-26 08:30N 47°34' W 052°38'2 4.2
2017-Oct-26 08:00N 47°36' W 052°36'2272.7 190 / 101026.7 9.2 7.5
2017-Oct-26 07:59N 47°38' W 052°36'1010.5
2017-Oct-26 07:00N 47°48' W 052°30'6 6.0 180 / 111026.5 8.8 7.1
2017-Oct-26 06:00N 47°54' W 052°30'7 7.2 170 / 111026.4 8.4 6.9
2017-Oct-26 05:00N 48°00' W 052°24'1312.7 190 / 101026.2 6.9 5.9
2017-Oct-26 04:00N 48°12' W 052°18'6 6.0 180 / 101026.0 6.3 5.2
2017-Oct-26 03:00N 48°18' W 052°18'7 7.2 150 / 101026.2 6.2 4.9
2017-Oct-26 02:00N 48°24' W 052°24'1212.0 150 / 101026.3 6.6 5.0
2017-Oct-26 01:00N 48°36' W 052°24'6 6.0 130 / 101026.1 6.4 5.0
2017-Oct-26 00:00N 48°42' W 052°24'1312.6 140 / 101026.0 6.2 5.1
2017-Oct-25 23:00N 48°54' W 052°30'0 0.0 130 / 81025.4 5.8 5.0
2017-Oct-25 22:00N 48°54' W 052°30'1312.6 120 / 41025.0 8.2 5.9
2017-Oct-25 21:00N 49°06' W 052°36'1212.0 140 / 41024.4 6.9 5.6
2017-Oct-25 20:00N 49°18' W 052°36'1312.6 170 / 41023.7 6.5 5.6
2017-Oct-25 19:00N 49°30' W 052°42'1818.4 190 / 21023.5 5.9 5.1
2017-Oct-25 18:00N 49°48' W 052°48'1312.6 260 / 51023.2 5.4 4.7
2017-Oct-25 17:00N 50°00' W 052°54'1818.0 240 / 31023.0 4.1 3.3
2017-Oct-25 16:00N 50°18' W 052°54'1312.6 320 / 21022.7 3.9 3.7
2017-Oct-25 15:00N 50°30' W 053°00'1312.6 300 / 31023.2 3.3 3.2
2017-Oct-25 14:00N 50°42' W 053°06'6 6.0 340 / 31023.2 3.2 3.1
2017-Oct-25 13:00N 50°48' W 053°06'1312.6 280 / 101022.7 3.1 3.0
2017-Oct-25 12:00N 51°00' W 053°12'1212.0 300 / 61022.0 2.8 2.6
2017-Oct-25 11:00N 51°12' W 053°12'7 7.1 300 / 71021.7 3.3 3.2
2017-Oct-25 10:00N 51°18' W 053°18'1312.6 280 / 81020.9 2.9 2.7
2017-Oct-25 09:00N 51°30' W 053°24'1212.0 280 / 71020.6 3.9 3.4
2017-Oct-25 08:00N 51°42' W 053°24'1312.6 300 / 81020.3 3.6 3.0
2017-Oct-25 07:00N 51°54' W 053°30'1212.0 300 / 81019.6 3.7 2.8
2017-Oct-25 06:00N 52°06' W 053°30'   300 / 101019.1 3.7 2.8
Track history (hours):
 
Tides and Currents Weather Stations Pressure Air Temp Water Temp Dewpoint Dewpoint Depression Visibility Wind Speed Wind Dir Waves Ship Positions

Oceanographic research ship CCGS Louis S. St-Laurent (Canada)

Detailed information on ship capabilities available from ARCUS's ALIAS (Arctic Logistics Information and Support) project.

Last reported at 2017-Nov-04 06:00 UTC. Time now 2017-Nov-20 02:13 UTC.
Position N 47°36' W 052°42'.
Warning: this ship's position is 15 days out of date.

Length 119.63 m; beam 24.38 m; draft 9.9 m.

MMSI: 316165000.

Wind from 200 at 17 knots

Barometer 1010.0 mb
Air temperature 11.5 ° C
Dewpoint 10.1 ° C

Date/timePositionNaut miles runAvg speedWind from/ knotsBaromVisibWave heightAir tempDewpointWater temp
2017-Nov-04 06:00N 47°36' W 052°42'0 0.0 200 / 171010.0 11.510.1
2017-Nov-04 05:00N 47°36' W 052°42'0 0.0 210 / 91012.3 11.510.2
2017-Nov-04 04:00N 47°36' W 052°42'0 0.0 200 / 111013.8 11.710.4
2017-Nov-04 03:00N 47°36' W 052°42'0 0.0 200 / 131015.6 11.310.1
2017-Nov-04 02:00N 47°36' W 052°42'0 0.0 210 / 131016.7 10.5 9.5
2017-Nov-04 01:00N 47°36' W 052°42'0 0.0 200 / 141018.1 10.0 9.0
2017-Nov-04 00:00N 47°36' W 052°42'0 0.0 200 / 111019.1 9.6 8.5
2017-Nov-03 23:00N 47°36' W 052°42'0 0.0 210 / 111020.2 9.1 7.8
2017-Nov-03 22:00N 47°36' W 052°42'0 0.0 210 / 91021.3 8.2 6.6
2017-Nov-03 21:00N 47°36' W 052°42'0 0.0 200 / 51022.3 7.7 5.3
2017-Nov-03 20:00N 47°36' W 052°42'0 0.0 210 / 81022.8 8.4 5.6
2017-Nov-03 19:00N 47°36' W 052°42'0 0.0 200 / 71024.0 10.3 5.4
2017-Nov-03 18:00N 47°36' W 052°42'0 0.0 190 / 51025.0 10.9 5.6
2017-Nov-03 17:00N 47°36' W 052°42'0 0.0 180 / 81025.9 10.3 5.3
2017-Nov-03 16:00N 47°36' W 052°42'0 0.0 190 / 91027.3 10.0 5.4
2017-Nov-03 14:00N 47°36' W 052°42'0 0.0 200 / 51030.1 8.1 5.2
2017-Nov-03 13:00N 47°36' W 052°42'0 0.0 230 / 51030.6 7.8 4.8
2017-Nov-03 12:00N 47°36' W 052°42'0 0.0 220 / 21031.6 5.7 3.9
2017-Nov-03 11:00N 47°36' W 052°42'0 0.0 210 / 31032.2 2.9 1.8
2017-Nov-03 10:00N 47°36' W 052°42'0 0.0 210 / 31032.5 1.9 1.0
2017-Nov-03 09:00N 47°36' W 052°42'0 0.0 220 / 31033.0 1.5 0.7
2017-Nov-03 08:00N 47°36' W 052°42'0 0.0 220 / 21033.6 1.3 0.6
2017-Nov-03 07:00N 47°36' W 052°42'0 0.0 210 / 41034.1 0.9 0.1
2017-Nov-03 06:00N 47°36' W 052°42'0 0.0 220 / 31034.8 0.8-0.0
2017-Nov-03 05:00N 47°36' W 052°42'0 0.0 210 / 31035.7 1.2 0.4
2017-Nov-03 04:00N 47°36' W 052°42'0 0.0 220 / 41035.9 1.8 0.8
2017-Nov-03 03:00N 47°36' W 052°42'0 0.0 220 / 31036.1 2.1 1.1
2017-Nov-03 02:00N 47°36' W 052°42'0 0.0 220 / 31036.9 2.4 1.3
2017-Nov-03 01:00N 47°36' W 052°42'0 0.0 210 / 41036.9 3.4 2.0
2017-Nov-03 00:00N 47°36' W 052°42'0 0.0 200 / 31036.5 4.3 2.6
2017-Nov-02 23:00N 47°36' W 052°42'0 0.0 130 / 31036.4 5.2 2.9
2017-Nov-02 22:00N 47°36' W 052°42'0 0.0 1036.5 5.9 3.2
2017-Nov-02 21:00N 47°36' W 052°42'0 0.0 1036.6 6.5 3.1
2017-Nov-02 20:00N 47°36' W 052°42'0 0.0 060 / 11036.2 7.5 3.0
2017-Nov-02 19:00N 47°36' W 052°42'0 0.0 060 / 11035.9 9.1 3.3
2017-Nov-02 18:00N 47°36' W 052°42'0 0.0 070 / 11035.4 9.9 3.7
2017-Nov-02 17:00N 47°36' W 052°42'0 0.0 020 / 11035.6 10.0 2.7
2017-Nov-02 16:00N 47°36' W 052°42'0 0.0 340 / 21036.0 9.7 2.4
2017-Nov-02 15:00N 47°36' W 052°42'0 0.0 260 / 41036.4 9.5 2.9
2017-Nov-02 14:00N 47°36' W 052°42'0 0.0 310 / 11036.5 9.0 3.5
2017-Nov-02 13:00N 47°36' W 052°42'0 0.0 140 / 11036.3 7.6 4.0
2017-Nov-02 12:00N 47°36' W 052°42'0 0.0 200 / 41036.1 5.4 3.4
2017-Nov-02 11:00N 47°36' W 052°42'0 0.0 210 / 31035.4 3.8 2.7
2017-Nov-02 10:00N 47°36' W 052°42'0 0.0 210 / 41034.8 4.0 2.9
2017-Nov-02 09:00N 47°36' W 052°42'0 0.0 220 / 31034.3 4.2 3.1
2017-Nov-02 08:00N 47°36' W 052°42'0 0.0 190 / 21034.2 4.5 3.3
2017-Nov-02 07:00N 47°36' W 052°42'0 0.0 190 / 31033.8 5.8 3.8
2017-Nov-02 06:00N 47°36' W 052°42'0 0.0 210 / 41033.4 6.2 4.0
2017-Nov-02 05:00N 47°36' W 052°42'0 0.0 210 / 51033.2 6.5 4.4
2017-Nov-02 04:00N 47°36' W 052°42'0 0.0 190 / 51032.7 7.2 4.9
2017-Nov-02 03:00N 47°36' W 052°42'0 0.0 210 / 61032.2 8.0 5.1
2017-Nov-02 02:00N 47°36' W 052°42'0 0.0 210 / 51031.9 8.1 5.7
2017-Nov-02 01:00N 47°36' W 052°42'0 0.0 190 / 81031.4 8.0 5.7
2017-Nov-02 00:00N 47°36' W 052°42'0 0.0 210 / 81030.6 8.7 4.9
2017-Nov-01 23:00N 47°36' W 052°42'0 0.0 210 / 91029.7 9.2 4.5
2017-Nov-01 22:00N 47°36' W 052°42'0 0.0 220 / 71029.2 9.6 4.2
2017-Nov-01 21:00N 47°36' W 052°42'0 0.0 210 / 61028.3 10.4 2.8
2017-Nov-01 20:00N 47°36' W 052°42'0 0.0 230 / 101027.8 12.9 1.5
2017-Nov-01 19:00N 47°36' W 052°42'0 0.0 230 / 101026.9 14.0 1.6
2017-Nov-01 18:00N 47°36' W 052°42'0 0.0 230 / 131026.3 14.5 0.5
2017-Nov-01 17:00N 47°36' W 052°42'0 0.0 220 / 121025.7 14.6 0.5
2017-Nov-01 16:00N 47°36' W 052°42'0 0.0 230 / 111025.3 14.3 2.6
2017-Nov-01 15:00N 47°36' W 052°42'0 0.0 230 / 111025.2 13.6 4.8
2017-Nov-01 14:00N 47°36' W 052°42'0 0.0 260 / 101025.0 13.0 6.8
2017-Nov-01 13:00N 47°36' W 052°42'0 0.0 240 / 91024.1 12.5 7.7
2017-Nov-01 12:00N 47°36' W 052°42'0 0.0 230 / 101023.0 11.7 8.6
2017-Nov-01 11:00N 47°36' W 052°42'0 0.0 210 / 91021.5 10.5 8.5
2017-Nov-01 10:00N 47°36' W 052°42'0 0.0 210 / 91019.7 10.8 8.7
2017-Nov-01 09:00N 47°36' W 052°42'0 0.0 220 / 121019.0 12.0 9.3
2017-Nov-01 08:00N 47°36' W 052°42'0 0.0 210 / 91018.4 11.9 9.9
2017-Nov-01 07:00N 47°36' W 052°42'0 0.0 210 / 81017.9 11.6 9.9
2017-Nov-01 06:00N 47°36' W 052°42'0 0.0 210 / 101017.5 11.7 9.8
2017-Nov-01 05:00N 47°36' W 052°42'0 0.0 210 / 91016.9 10.9 9.1
2017-Nov-01 03:00N 47°36' W 052°42'0 0.0 220 / 91016.5 10.3 8.7
2017-Nov-01 02:00N 47°36' W 052°42'3 5.3 210 / 91016.4 10.3 8.7
2017-Nov-01 01:30N 47°33' W 052°42'3 5.1
2017-Nov-01 01:00N 47°36' W 052°42'313.6 230 / 71016.7 10.6 8.8
2017-Nov-01 00:48N 47°33' W 052°42'0 0.0
2017-Nov-01 00:15N 47°33' W 052°42'0 0.0
2017-Nov-01 00:00N 47°33' W 052°42'3291.7
2017-Nov-01 00:00N 47°36' W 052°42'3 5.3 220 / 31016.2 10.9 9.0
2017-Oct-31 23:30N 47°33' W 052°42'3 5.1
2017-Oct-31 23:00N 47°36' W 052°42'310.8 230 / 21015.8 11.5 9.2
2017-Oct-31 22:45N 47°33' W 052°42'0 0.0
2017-Oct-31 22:30N 47°33' W 052°42'3 5.1
2017-Oct-31 22:00N 47°36' W 052°42'363.9 210 / 91015.3 12.3 9.6
2017-Oct-31 21:57N 47°33' W 052°42'0 0.0
2017-Oct-31 21:24N 47°33' W 052°42'0 0.0
2017-Oct-31 21:00N 47°33' W 052°42'3282.9
2017-Oct-31 21:00N 47°36' W 052°42'0 0.0 210 / 81014.9 13.610.5
2017-Oct-31 20:00N 47°36' W 052°42'0 0.0 210 / 91014.5 14.110.8
2017-Oct-31 19:00N 47°36' W 052°42'0 0.0 230 / 121014.0 15.012.0
2017-Oct-31 18:00N 47°36' W 052°42'3 4.8 220 / 141013.6 16.113.4
2017-Oct-31 17:27N 47°33' W 052°42'3 5.6
2017-Oct-31 17:00N 47°36' W 052°42'3 6.6 210 / 131013.1 16.214.6
2017-Oct-31 16:36N 47°33' W 052°42'0 0.0
2017-Oct-31 16:24N 47°33' W 052°42'3 6.3
2017-Oct-31 16:00N 47°36' W 052°42'318.4 200 / 131013.5 15.414.1
2017-Oct-31 15:51N 47°33' W 052°42'0 0.0
2017-Oct-31 15:30N 47°33' W 052°42'3 5.1
2017-Oct-31 15:00N 47°36' W 052°42'363.4 200 / 121014.6 15.013.8
2017-Oct-31 14:57N 47°33' W 052°42'0 0.0
2017-Oct-31 14:30N 47°33' W 052°42'0 0.0
2017-Oct-31 14:00N 47°33' W 052°42'3274.5
2017-Oct-31 14:00N 47°36' W 052°42'3 4.4 210 / 141015.3 13.412.2
2017-Oct-31 13:24N 47°33' W 052°42'3 6.3
2017-Oct-31 13:00N 47°36' W 052°42'0 0.0 210 / 171015.5 13.211.9
2017-Oct-31 12:00N 47°36' W 052°42'0 0.0 210 / 191015.7 12.011.0
2017-Oct-31 11:00N 47°36' W 052°42'3 2.9 200 / 161016.2 11.610.6
2017-Oct-31 10:06N 47°33' W 052°42'0 0.1
2017-Oct-31 10:00N 47°33' W 052°42'3282.9
2017-Oct-31 10:00N 47°36' W 052°42'3 4.0 230 / 51017.5 10.610.1
2017-Oct-31 09:21N 47°33' W 052°42'3 7.2
2017-Oct-31 09:00N 47°36' W 052°42'328.4 220 / 91017.7 9.7 9.4
2017-Oct-31 08:54N 47°33' W 052°42'0 0.0
2017-Oct-31 08:30N 47°33' W 052°42'0 0.0
2017-Oct-31 08:00N 47°33' W 052°42'3282.9
2017-Oct-31 08:00N 47°36' W 052°42'3 5.3 250 / 81018.7 9.4 9.0
2017-Oct-31 07:30N 47°33' W 052°42'3 5.1
2017-Oct-31 07:00N 47°36' W 052°42'313.6 240 / 111019.0 9.4 8.7
2017-Oct-31 06:48N 47°33' W 052°42'0 0.0
2017-Oct-31 06:30N 47°33' W 052°42'0 0.0
2017-Oct-31 06:00N 47°33' W 052°42'3273.9
2017-Oct-31 06:00N 47°36' W 052°42'3 5.3 230 / 111019.6 9.0 8.2
2017-Oct-31 05:30N 47°33' W 052°42'3 5.1
2017-Oct-31 05:00N 47°36' W 052°42'310.7 230 / 81020.5 9.0 7.9
2017-Oct-31 04:45N 47°33' W 052°42'0 0.0
2017-Oct-31 04:06N 47°33' W 052°42'323.8
2017-Oct-31 04:00N 47°36' W 052°42'328.5 210 / 81021.4 8.7 7.4
2017-Oct-31 03:54N 47°33' W 052°42'0 0.0
2017-Oct-31 03:30N 47°33' W 052°42'3 5.1
2017-Oct-31 03:00N 47°36' W 052°42'318.4 210 / 51021.8 8.6 6.8
2017-Oct-31 02:51N 47°33' W 052°42'0 0.0
2017-Oct-31 02:18N 47°33' W 052°42'0 0.0
2017-Oct-31 02:00N 47°33' W 052°42'3282.9
2017-Oct-31 02:00N 47°36' W 052°42'3 4.4 220 / 71022.3 8.5 6.6
2017-Oct-31 01:24N 47°33' W 052°42'3 6.3
2017-Oct-31 01:00N 47°36' W 052°42'3 4.4 200 / 81022.7 8.5 7.3
2017-Oct-31 00:24N 47°33' W 052°42'3 6.3
2017-Oct-31 00:00N 47°36' W 052°42'363.9 210 / 41022.8 8.7 7.0
2017-Oct-30 23:57N 47°33' W 052°42'0 0.0
2017-Oct-30 23:24N 47°33' W 052°42'0 0.0
2017-Oct-30 23:00N 47°33' W 052°42'3274.5
2017-Oct-30 23:00N 47°36' W 052°42'3 5.3 200 / 81023.4 8.7 7.1
2017-Oct-30 22:30N 47°33' W 052°42'0 0.0
2017-Oct-30 22:00N 47°33' W 052°42'3282.9
2017-Oct-30 22:00N 47°36' W 052°42'3 4.4 200 / 51023.7 9.0 6.6
2017-Oct-30 21:24N 47°33' W 052°42'3 6.3
2017-Oct-30 21:00N 47°36' W 052°42'328.6 200 / 91023.9 9.3 6.6
2017-Oct-30 20:54N 47°33' W 052°42'0 0.0
2017-Oct-30 20:30N 47°33' W 052°42'3 5.0
2017-Oct-30 20:00N 47°36' W 052°42'0 0.0 190 / 41023.7 9.9 7.4
2017-Oct-30 19:00N 47°36' W 052°42'0 0.0 200 / 51023.9 10.7 7.5
2017-Oct-30 18:00N 47°36' W 052°42'0 0.0 200 / 61023.9 11.3 7.3
2017-Oct-30 17:00N 47°36' W 052°42'0 0.0 230 / 51024.2 12.1 6.8
2017-Oct-30 16:00N 47°36' W 052°42'0 0.0 010 / 21025.0 10.9 6.8
2017-Oct-30 15:00N 47°36' W 052°42'0 0.0 030 / 21024.9 10.0 6.3
2017-Oct-30 14:00N 47°36' W 052°42'0 0.0 230 / 31025.5 9.6 5.7
2017-Oct-30 13:00N 47°36' W 052°42'0 0.0 230 / 61025.6 8.8 5.8
2017-Oct-30 12:00N 47°36' W 052°42'0 0.0 230 / 51025.2 8.4 5.7
2017-Oct-30 11:00N 47°36' W 052°42'0 0.0 220 / 61024.4 8.0 5.5
2017-Oct-30 10:00N 47°36' W 052°42'322.4 220 / 61023.8 8.3 5.5
2017-Oct-30 09:53N 47°33' W 052°42'0 0.0
2017-Oct-30 09:29N 47°33' W 052°42'3 5.2
2017-Oct-30 09:00N 47°36' W 052°42'340.0 220 / 51023.6 8.5 5.6
2017-Oct-30 08:56N 47°33' W 052°42'0 0.0
2017-Oct-30 08:29N 47°33' W 052°42'3 5.2
2017-Oct-30 08:00N 47°36' W 052°42'315.5 230 / 41023.2 9.3 5.5
2017-Oct-30 07:50N 47°33' W 052°42'0 0.0
2017-Oct-30 07:02N 47°33' W 052°42'369.1
2017-Oct-30 07:00N 47°36' W 052°42'322.3 230 / 31023.2 10.5 5.8
2017-Oct-30 06:53N 47°33' W 052°42'0 0.0
2017-Oct-30 06:02N 47°33' W 052°42'369.6
2017-Oct-30 06:00N 47°36' W 052°42'322.4 230 / 31023.0 11.0 6.0
2017-Oct-30 05:53N 47°33' W 052°42'0 0.0
2017-Oct-30 05:17N 47°33' W 052°42'3 8.8
2017-Oct-30 05:00N 47°36' W 052°42'340.0 230 / 51023.2 10.5 5.9
2017-Oct-30 04:56N 47°33' W 052°42'0 0.0
2017-Oct-30 04:29N 47°33' W 052°42'3 5.2
2017-Oct-30 04:00N 47°36' W 052°42'3189.9 230 / 41023.0 11.3 6.2
2017-Oct-30 03:59N 47°33' W 052°42'0 0.0
2017-Oct-30 03:29N 47°33' W 052°42'3 5.2
2017-Oct-30 03:00N 47°36' W 052°42'339.8 230 / 31023.3 11.3 6.3
2017-Oct-30 02:56N 47°33' W 052°42'0 0.0
2017-Oct-30 02:20N 47°33' W 052°42'3 7.5
2017-Oct-30 02:00N 47°36' W 052°42'3 9.6 230 / 41023.0 10.8 6.6
2017-Oct-30 01:44N 47°33' W 052°42'0 0.0
2017-Oct-30 01:29N 47°33' W 052°42'3 5.2
2017-Oct-30 01:00N 47°36' W 052°42'322.3 010 / 21022.5 8.8 7.1
2017-Oct-30 00:53N 47°33' W 052°42'0 0.0
2017-Oct-30 00:23N 47°33' W 052°42'3 6.5
2017-Oct-30 00:00N 47°36' W 052°42'3189.9 020 / 21021.7 9.1 6.9
2017-Oct-29 23:59N 47°33' W 052°42'0 0.0
2017-Oct-29 23:29N 47°33' W 052°42'3 5.2
2017-Oct-29 23:00N 47°36' W 052°42'3186.0 020 / 21021.5 9.0 6.8
2017-Oct-29 22:59N 47°33' W 052°42'0 0.0
2017-Oct-29 22:26N 47°33' W 052°42'3 5.8
2017-Oct-29 22:00N 47°36' W 052°42'3186.0 320 / 11021.4 10.2 6.7
2017-Oct-29 21:59N 47°33' W 052°42'0 0.0
2017-Oct-29 21:29N 47°33' W 052°42'3 5.2
2017-Oct-29 21:00N 47°36' W 052°42'3189.9 1020.9 10.5 6.2
2017-Oct-29 20:59N 47°33' W 052°42'3 2.6
2017-Oct-29 20:00N 47°36' W 052°42'0 0.0 280 / 11020.2 10.8 6.3
2017-Oct-29 19:00N 47°36' W 052°42'0 0.0 300 / 21019.8 11.1 6.3
2017-Oct-29 18:00N 47°36' W 052°42'0 0.0 300 / 11019.5 11.4 6.0
2017-Oct-29 16:00N 47°36' W 052°42'0 0.0 030 / 61018.8 9.7 6.1
2017-Oct-29 15:00N 47°36' W 052°42'0 0.0 020 / 91019.0 9.9 6.1
2017-Oct-29 14:00N 47°36' W 052°42'0 0.0 010 / 81019.0 9.1 6.2
2017-Oct-29 13:00N 47°36' W 052°42'0 0.0 340 / 31018.9 8.9 6.3
2017-Oct-29 12:00N 47°36' W 052°42'0 0.0 360 / 91018.2 8.2 6.5
2017-Oct-29 11:00N 47°36' W 052°42'0 0.0 020 / 71017.6 8.3 7.1
2017-Oct-29 10:00N 47°36' W 052°42'322.3 030 / 51016.8 9.0 6.8
2017-Oct-29 09:53N 47°33' W 052°42'0 0.0
2017-Oct-29 09:17N 47°33' W 052°42'3 8.8
2017-Oct-29 09:00N 47°36' W 052°42'3 3.3 340 / 21016.3 9.5 6.7
2017-Oct-29 08:14N 47°33' W 052°42'310.7
2017-Oct-29 08:00N 47°36' W 052°42'311.9 310 / 21015.9 9.7 6.5
2017-Oct-29 07:47N 47°33' W 052°42'0 0.0
2017-Oct-29 07:14N 47°33' W 052°42'310.7
2017-Oct-29 07:00N 47°36' W 052°42'315.5 310 / 21015.5 9.4 6.4
2017-Oct-29 06:50N 47°33' W 052°42'0 0.0
2017-Oct-29 06:26N 47°33' W 052°42'3 5.8
2017-Oct-29 06:00N 47°36' W 052°42'322.3 240 / 11014.6 9.3 5.7
2017-Oct-29 05:53N 47°33' W 052°42'0 0.0
2017-Oct-29 05:17N 47°33' W 052°42'3 8.8
2017-Oct-29 05:00N 47°36' W 052°42'0 0.0 010 / 61014.4 8.6 5.7
2017-Oct-29 04:00N 47°36' W 052°42'311.9 020 / 61014.4 8.6 6.0
2017-Oct-29 03:47N 47°33' W 052°42'3 3.2
2017-Oct-29 03:00N 47°36' W 052°42'0 0.0 010 / 61014.3 8.5 5.9
2017-Oct-29 02:00N 47°36' W 052°42'0 0.0 350 / 41014.1 8.3 6.1
2017-Oct-29 01:00N 47°36' W 052°42'0 0.0 010 / 81014.0 8.2 6.8
2017-Oct-29 00:00N 47°36' W 052°42'0 0.0 010 / 61013.6 8.0 6.3
2017-Oct-28 23:00N 47°36' W 052°42'0 0.0 010 / 101013.4 7.9 6.2
2017-Oct-28 22:00N 47°36' W 052°42'0 0.0 010 / 71012.9 7.9 5.9
2017-Oct-28 21:00N 47°36' W 052°42'0 0.0 010 / 51012.3 8.1 5.6
2017-Oct-28 20:00N 47°36' W 052°42'0 0.0 340 / 31012.1 8.9 5.3
2017-Oct-28 19:00N 47°36' W 052°42'0 0.0 010 / 81012.0 7.7 5.1
2017-Oct-28 18:00N 47°36' W 052°42'0 0.0 020 / 91011.8 8.5 5.0
2017-Oct-28 17:00N 47°36' W 052°42'0 0.0 350 / 11011.9 9.9 5.1
2017-Oct-28 16:00N 47°36' W 052°42'0 0.0 030 / 71012.1 8.7 5.0
2017-Oct-28 15:00N 47°36' W 052°42'0 0.0 1012.5 9.4 5.1
2017-Oct-28 14:00N 47°36' W 052°42'0 0.0 350 / 31013.4 7.8 5.2
2017-Oct-28 13:00N 47°36' W 052°42'0 0.0 300 / 11013.4 8.5 5.2
2017-Oct-28 12:00N 47°36' W 052°42'3 2.6 360 / 11013.5 6.6 3.9
2017-Oct-28 11:02N 47°33' W 052°42'369.0
2017-Oct-28 11:00N 47°36' W 052°42'0 0.0 1013.3 6.5 3.5
2017-Oct-28 10:00N 47°36' W 052°42'3193.9 030 / 41012.8 5.4 3.2
2017-Oct-28 09:59N 47°33' W 052°42'0 0.0
2017-Oct-28 09:29N 47°33' W 052°42'3 5.2
2017-Oct-28 09:00N 47°36' W 052°42'3193.9 330 / 21013.5 6.3 3.1
2017-Oct-28 08:59N 47°33' W 052°42'0 0.0
2017-Oct-28 08:26N 47°33' W 052°42'3 5.8
2017-Oct-28 08:00N 47°36' W 052°42'340.0 1014.1 6.6 3.2
2017-Oct-28 07:56N 47°33' W 052°42'0 0.0
2017-Oct-28 07:23N 47°33' W 052°42'3 6.5
2017-Oct-28 07:00N 47°36' W 052°42'3186.0 090 / 21013.6 5.8 3.3
2017-Oct-28 06:59N 47°33' W 052°42'0 0.0
2017-Oct-28 06:23N 47°33' W 052°42'3 6.5
2017-Oct-28 06:00N 47°36' W 052°42'3189.9 190 / 21014.8 6.6 3.7
2017-Oct-28 05:59N 47°33' W 052°42'0 0.0
2017-Oct-28 05:26N 47°33' W 052°42'3 5.8
2017-Oct-28 05:00N 47°36' W 052°42'3193.9 140 / 11015.8 6.2 3.6
2017-Oct-28 04:59N 47°33' W 052°42'0 0.0
2017-Oct-28 04:26N 47°33' W 052°42'3 5.8
2017-Oct-28 04:00N 47°36' W 052°42'322.4 050 / 31016.0 6.1 3.5
2017-Oct-28 03:53N 47°33' W 052°42'0 0.0
2017-Oct-28 03:29N 47°33' W 052°42'3 5.2
2017-Oct-28 03:00N 47°36' W 052°42'340.0 040 / 51016.5 6.3 3.8
2017-Oct-28 02:56N 47°33' W 052°42'0 0.0
2017-Oct-28 02:23N 47°33' W 052°42'3 6.5
2017-Oct-28 02:00N 47°36' W 052°42'3186.0 120 / 21017.3 6.6 4.0
2017-Oct-28 01:59N 47°33' W 052°42'0 0.0
2017-Oct-28 01:29N 47°33' W 052°42'3 5.2
2017-Oct-28 01:00N 47°36' W 052°42'3 7.0 200 / 21018.0 7.2 4.4
2017-Oct-28 00:38N 47°33' W 052°42'0 0.0
2017-Oct-28 00:29N 47°33' W 052°42'3 5.2
2017-Oct-28 00:00N 47°36' W 052°42'3193.9 090 / 31018.1 7.1 4.1
2017-Oct-27 23:59N 47°33' W 052°42'0 0.0
2017-Oct-27 23:23N 47°33' W 052°42'3 6.5
2017-Oct-27 23:00N 47°36' W 052°42'315.5 1018.5 7.3 4.3
2017-Oct-27 22:50N 47°33' W 052°42'0 0.0
2017-Oct-27 22:26N 47°33' W 052°42'3 5.8
2017-Oct-27 22:00N 47°36' W 052°42'322.3 180 / 11019.1 8.1 4.9
2017-Oct-27 21:53N 47°33' W 052°42'0 0.0
2017-Oct-27 21:26N 47°33' W 052°42'3 5.8
2017-Oct-27 21:00N 47°36' W 052°42'322.3 120 / 21019.2 7.7 5.3
2017-Oct-27 20:53N 47°33' W 052°42'3 2.9
2017-Oct-27 20:00N 47°36' W 052°42'0 0.0 030 / 11019.6 7.8 5.5
2017-Oct-27 19:00N 47°36' W 052°42'0 0.0 120 / 31019.9 8.7 5.5
2017-Oct-27 18:00N 47°36' W 052°42'0 0.0 060 / 21020.4 9.5 6.3
2017-Oct-27 17:00N 47°36' W 052°42'0 0.0 090 / 51020.7 8.4 6.6
2017-Oct-27 16:00N 47°36' W 052°42'0 0.0 090 / 51021.3 9.5 7.0
2017-Oct-27 15:00N 47°36' W 052°42'0 0.0 090 / 71022.0 8.7 6.5
2017-Oct-27 14:00N 47°36' W 052°42'0 0.0 090 / 71023.2 8.7 6.5
2017-Oct-27 13:00N 47°36' W 052°42'0 0.0 090 / 71023.2 9.0 6.5
2017-Oct-27 12:00N 47°36' W 052°42'2 3.2 200 / 11023.3 9.4 7.2
2017-Oct-27 11:25N 47°34' W 052°42'2 4.4
2017-Oct-27 11:00N 47°36' W 052°42'0 0.0 350 / 21023.4 9.1 7.1
2017-Oct-27 10:00N 47°36' W 052°42'2 6.6 080 / 61023.4 8.4 7.2
2017-Oct-27 09:43N 47°34' W 052°42'0 0.0
2017-Oct-27 09:25N 47°34' W 052°42'2 4.4
2017-Oct-27 09:00N 47°36' W 052°42'223.3 090 / 51023.2 8.4 7.8
2017-Oct-27 08:55N 47°34' W 052°42'0 0.0
2017-Oct-27 08:25N 47°34' W 052°42'2 4.4
2017-Oct-27 08:00N 47°36' W 052°42'223.3 350 / 11022.8 7.7 7.1
2017-Oct-27 07:55N 47°34' W 052°42'0 0.0
2017-Oct-27 07:25N 47°34' W 052°42'2 4.4
2017-Oct-27 07:00N 47°36' W 052°42'223.4 310 / 21023.1 7.8 7.2
2017-Oct-27 06:55N 47°34' W 052°42'0 0.0
2017-Oct-27 06:25N 47°34' W 052°42'0 0.0
2017-Oct-27 05:40N 47°34' W 052°42'0 0.0
2017-Oct-27 05:25N 47°34' W 052°42'2 4.4
2017-Oct-27 05:00N 47°36' W 052°42'263.6 230 / 11024.0 7.0 6.3
2017-Oct-27 04:58N 47°34' W 052°42'0 0.0
2017-Oct-27 04:13N 47°34' W 052°42'2 8.3
2017-Oct-27 04:00N 47°36' W 052°42'210.3 210 / 11024.9 7.5 6.7
2017-Oct-27 03:49N 47°34' W 052°42'0 0.0
2017-Oct-27 03:25N 47°34' W 052°42'2 4.4
2017-Oct-27 03:00N 47°36' W 052°42'223.3 1025.5 7.6 6.8
2017-Oct-27 02:55N 47°34' W 052°42'0 0.0
2017-Oct-27 02:28N 47°34' W 052°42'2 3.9
2017-Oct-27 02:00N 47°36' W 052°42'2 8.0 270 / 11026.2 8.5 7.5
2017-Oct-27 01:46N 47°34' W 052°42'0 0.0
2017-Oct-27 01:22N 47°34' W 052°42'2 4.9
2017-Oct-27 01:00N 47°36' W 052°42'214.3 1026.0 9.3 8.1
2017-Oct-27 00:52N 47°34' W 052°42'0 0.0
2017-Oct-27 00:25N 47°34' W 052°42'2 4.4
2017-Oct-27 00:00N 47°36' W 052°42'264.9 290 / 11026.0 9.6 8.4
2017-Oct-26 23:58N 47°34' W 052°42'0 0.0
2017-Oct-26 23:25N 47°34' W 052°42'2 4.4
2017-Oct-26 23:00N 47°36' W 052°42'214.3 210 / 21026.1 10.2 8.7
2017-Oct-26 22:52N 47°34' W 052°42'0 0.0
2017-Oct-26 22:28N 47°34' W 052°42'2 3.9
2017-Oct-26 22:00N 47°36' W 052°42'2 8.0 310 / 11026.4 10.6 8.8
2017-Oct-26 21:46N 47°34' W 052°42'0 0.0
2017-Oct-26 21:19N 47°34' W 052°42'2 5.7
2017-Oct-26 21:00N 47°36' W 052°42'223.4 080 / 21026.2 10.8 9.0
2017-Oct-26 20:55N 47°34' W 052°42'2 2.0
2017-Oct-26 20:00N 47°36' W 052°42'0 0.0 030 / 11026.2 12.5 9.6
2017-Oct-26 19:00N 47°36' W 052°42'0 0.0 090 / 51026.2 11.3 9.2
2017-Oct-26 18:00N 47°36' W 052°42'0 0.0 090 / 81026.2 11.0 9.2
2017-Oct-26 17:00N 47°36' W 052°42'0 0.0 090 / 91026.4 11.0 9.4
2017-Oct-26 16:00N 47°36' W 052°42'0 0.0 080 / 91026.6 11.3 9.6
2017-Oct-26 15:00N 47°36' W 052°42'0 0.0 090 / 101027.1 12.610.5
2017-Oct-26 14:00N 47°36' W 052°42'0 0.0 090 / 81027.6 11.4 8.8
2017-Oct-26 13:00N 47°36' W 052°42'0 0.0 190 / 21027.5 13.511.0
2017-Oct-26 12:00N 47°36' W 052°42'0 0.0 230 / 11027.9 10.8 8.6
2017-Oct-26 11:00N 47°36' W 052°42'0 0.0 1027.7 9.1 7.1
2017-Oct-26 10:00N 47°36' W 052°42'220.9 050 / 11027.5 7.9 6.6
2017-Oct-26 09:54N 47°34' W 052°42'0 0.0
2017-Oct-26 09:29N 47°34' W 052°42'2 3.7
2017-Oct-26 09:00N 47°36' W 052°42'320.3 260 / 91027.2 8.6 7.3
2017-Oct-26 08:51N 47°34' W 052°39'1 2.7
2017-Oct-26 08:30N 47°34' W 052°38'2 4.2
2017-Oct-26 08:00N 47°36' W 052°36'2272.7 190 / 101026.7 9.2 7.5
2017-Oct-26 07:59N 47°38' W 052°36'1010.5
2017-Oct-26 07:00N 47°48' W 052°30'6 6.0 180 / 111026.5 8.8 7.1
2017-Oct-26 06:00N 47°54' W 052°30'7 7.2 170 / 111026.4 8.4 6.9
2017-Oct-26 05:00N 48°00' W 052°24'1312.7 190 / 101026.2 6.9 5.9
2017-Oct-26 04:00N 48°12' W 052°18'6 6.0 180 / 101026.0 6.3 5.2
2017-Oct-26 03:00N 48°18' W 052°18'7 7.2 150 / 101026.2 6.2 4.9
2017-Oct-26 02:00N 48°24' W 052°24'1212.0 150 / 101026.3 6.6 5.0
2017-Oct-26 01:00N 48°36' W 052°24'6 6.0 130 / 101026.1 6.4 5.0
2017-Oct-26 00:00N 48°42' W 052°24'1312.6 140 / 101026.0 6.2 5.1
2017-Oct-25 23:00N 48°54' W 052°30'0 0.0 130 / 81025.4 5.8 5.0
2017-Oct-25 22:00N 48°54' W 052°30'1312.6 120 / 41025.0 8.2 5.9
2017-Oct-25 21:00N 49°06' W 052°36'1212.0 140 / 41024.4 6.9 5.6
2017-Oct-25 20:00N 49°18' W 052°36'1312.6 170 / 41023.7 6.5 5.6
2017-Oct-25 19:00N 49°30' W 052°42'1818.4 190 / 21023.5 5.9 5.1
2017-Oct-25 18:00N 49°48' W 052°48'1312.6 260 / 51023.2 5.4 4.7
2017-Oct-25 17:00N 50°00' W 052°54'1818.0 240 / 31023.0 4.1 3.3
2017-Oct-25 16:00N 50°18' W 052°54'1312.6 320 / 21022.7 3.9 3.7
2017-Oct-25 15:00N 50°30' W 053°00'1312.6 300 / 31023.2 3.3 3.2
2017-Oct-25 14:00N 50°42' W 053°06'6 6.0 340 / 31023.2 3.2 3.1
2017-Oct-25 13:00N 50°48' W 053°06'1312.6 280 / 101022.7 3.1 3.0
2017-Oct-25 12:00N 51°00' W 053°12'1212.0 300 / 61022.0 2.8 2.6
2017-Oct-25 11:00N 51°12' W 053°12'7 7.1 300 / 71021.7 3.3 3.2
2017-Oct-25 10:00N 51°18' W 053°18'1312.6 280 / 81020.9 2.9 2.7
2017-Oct-25 09:00N 51°30' W 053°24'1212.0 280 / 71020.6 3.9 3.4
2017-Oct-25 08:00N 51°42' W 053°24'1312.6 300 / 81020.3 3.6 3.0
2017-Oct-25 07:00N 51°54' W 053°30'1212.0 300 / 81019.6 3.7 2.8
2017-Oct-25 06:00N 52°06' W 053°30'   300 / 101019.1 3.7 2.8

Dump ship's entire track history